Time;durP1;ratioP1;P1;durP2;ratioP2;P2;SDS_P1;SDS_P2;PMS_P1;PMS_P2;Temp;Humidity;BMP_temperature;BMP_pressure;BME280_temperature;BME280_humidity;BME280_pressure;Samples;Min_cycle;Max_cycle;Signal;HPM_P1;HPM_P2
2023/06/05 00:01:15;;;;;;;3.40;1.30;;;11.40;99.90;;;;;;4403502;27;656284;-69
2023/06/05 00:04:02;;;;;;;4.37;1.57;;;11.40;99.90;;;;;;4372580;27;658482;-68
2023/06/05 00:06:50;;;;;;;3.50;1.77;;;11.40;99.90;;;;;;4376782;28;657777;-68
2023/06/05 00:09:37;;;;;;;3.63;1.58;;;11.30;99.90;;;;;;4377961;27;657670;-68
2023/06/05 00:12:26;;;;;;;4.57;1.60;;;11.30;99.90;;;;;;4386298;27;656913;-69
2023/06/05 00:15:13;;;;;;;3.10;1.70;;;11.30;99.90;;;;;;4380560;27;656972;-69
2023/06/05 00:18:00;;;;;;;5.10;1.53;;;11.30;99.90;;;;;;4358072;28;657360;-69
2023/06/05 00:20:47;;;;;;;5.10;2.07;;;11.30;99.90;;;;;;4386111;27;656938;-69
2023/06/05 00:23:35;;;;;;;5.97;2.23;;;11.40;99.90;;;;;;4379461;28;658093;-69
2023/06/05 00:26:22;;;;;;;4.97;1.80;;;11.30;99.90;;;;;;4384181;28;657013;-68
2023/06/05 00:29:11;;;;;;;4.23;1.63;;;11.30;99.90;;;;;;4390860;27;656291;-68
2023/06/05 00:31:58;;;;;;;3.90;1.80;;;11.30;99.90;;;;;;4361245;28;657837;-69
2023/06/05 00:34:46;;;;;;;5.07;1.80;;;11.30;99.90;;;;;;4358398;28;656726;-69
2023/06/05 00:37:33;;;;;;;11.50;2.00;;;11.20;99.90;;;;;;4399072;28;657117;-70
2023/06/05 00:40:21;;;;;;;3.40;1.70;;;11.20;99.90;;;;;;4360003;28;657234;-69
2023/06/05 00:43:08;;;;;;;5.03;2.00;;;11.20;99.90;;;;;;4400961;28;657318;-70
2023/06/05 00:45:59;;;;;;;5.93;1.63;;;11.20;99.90;;;;;;4358791;28;656115;-69
2023/06/05 00:48:48;;;;;;;4.13;1.60;;;11.10;99.90;;;;;;4359561;28;657126;-68
2023/06/05 00:51:35;;;;;;;4.20;2.00;;;11.20;99.90;;;;;;4358237;27;656837;-69
2023/06/05 00:54:23;;;;;;;6.50;1.80;;;11.20;99.90;;;;;;4385742;28;657761;-70
2023/06/05 00:57:10;;;;;;;3.60;1.73;;;11.20;99.90;;;;;;4384669;27;656419;-69
2023/06/05 00:59:58;;;;;;;6.50;1.67;;;11.20;99.90;;;;;;4384205;28;657381;-69
2023/06/05 01:02:47;;;;;;;7.20;1.80;;;11.20;99.90;;;;;;4378408;28;657016;-69
2023/06/05 01:05:36;;;;;;;3.37;1.73;;;11.10;99.90;;;;;;4383538;28;657156;-68
2023/06/05 01:08:25;;;;;;;7.67;2.10;;;11.10;99.90;;;;;;4349764;28;656916;-68
2023/06/05 01:11:17;;;;;;;4.53;2.03;;;11.10;99.90;;;;;;4364001;28;657057;-68
2023/06/05 01:14:08;;;;;;;6.33;2.20;;;11.10;99.90;;;;;;4358110;28;657041;-68
2023/06/05 01:16:56;;;;;;;5.80;2.10;;;11.10;99.90;;;;;;4344981;28;657075;-69
2023/06/05 01:19:45;;;;;;;5.33;2.27;;;11.10;99.90;;;;;;4392323;28;657397;-68
2023/06/05 01:22:32;;;;;;;5.73;1.97;;;11.10;99.90;;;;;;4376475;27;657937;-68
2023/06/05 01:25:21;;;;;;;5.33;2.20;;;11.10;99.90;;;;;;4337159;28;1140139;-69
2023/06/05 01:28:11;;;;;;;4.10;2.30;;;11.10;99.90;;;;;;4356559;28;659170;-69
2023/06/05 01:31:03;;;;;;;4.90;2.30;;;11.10;99.90;;;;;;4359829;28;657495;-68
2023/06/05 01:33:56;;;;;;;4.87;2.20;;;11.10;99.90;;;;;;4357561;27;656938;-69
2023/06/05 01:36:43;;;;;;;3.45;2.00;;;11.10;99.90;;;;;;4368115;27;657817;-68
2023/06/05 01:39:30;;;;;;;4.73;2.20;;;11.10;99.90;;;;;;4376929;27;657087;-69
2023/06/05 01:42:19;;;;;;;5.90;2.00;;;11.10;99.90;;;;;;4376062;28;657367;-69
2023/06/05 01:45:07;;;;;;;11.77;2.00;;;11.00;99.90;;;;;;4389903;27;656852;-68
2023/06/05 01:47:54;;;;;;;3.97;2.08;;;11.10;99.90;;;;;;4411739;27;657696;-68
2023/06/05 01:50:42;;;;;;;5.90;1.90;;;11.10;99.90;;;;;;4355295;28;656946;-68
2023/06/05 01:53:30;;;;;;;5.40;2.10;;;11.10;99.90;;;;;;4379620;28;656790;-68
2023/06/05 01:56:19;;;;;;;9.07;2.07;;;11.10;99.90;;;;;;4365580;28;656796;-69
2023/06/05 01:59:08;;;;;;;7.07;2.00;;;11.10;99.90;;;;;;4365386;27;656839;-68
2023/06/05 02:01:55;;;;;;;4.63;2.00;;;11.20;99.90;;;;;;4403337;27;657612;-70
2023/06/05 02:04:46;;;;;;;4.00;2.23;;;11.20;99.90;;;;;;4381104;28;656808;-68
2023/06/05 02:07:36;;;;;;;5.43;2.00;;;11.20;99.90;;;;;;4375524;28;657437;-68
2023/06/05 02:10:23;;;;;;;6.30;2.20;;;11.20;99.90;;;;;;4365351;27;657016;-69
2023/06/05 02:13:10;;;;;;;5.03;2.30;;;11.20;99.90;;;;;;4383899;27;656563;-68
2023/06/05 02:16:00;;;;;;;4.53;2.00;;;11.30;99.90;;;;;;4374096;28;657237;-68
2023/06/05 02:18:48;;;;;;;3.13;1.87;;;11.20;99.90;;;;;;4364244;28;657448;-68
2023/06/05 02:21:36;;;;;;;5.90;1.90;;;11.20;99.90;;;;;;4381482;27;657138;-69
2023/06/05 02:24:25;;;;;;;4.13;2.03;;;11.30;99.90;;;;;;4394454;27;657687;-68
2023/06/05 02:27:12;;;;;;;6.47;2.00;;;11.30;99.90;;;;;;4368474;27;656995;-69
2023/06/05 02:29:59;;;;;;;5.80;2.20;;;11.30;99.90;;;;;;4388915;27;656081;-68
2023/06/05 02:32:48;;;;;;;4.53;2.03;;;11.30;99.90;;;;;;4369127;27;656783;-68
2023/06/05 02:35:35;;;;;;;7.57;2.20;;;11.30;99.90;;;;;;4380715;27;657915;-69
2023/06/05 02:38:23;;;;;;;6.97;2.10;;;11.30;99.90;;;;;;4383678;28;657934;-68
2023/06/05 02:41:10;;;;;;;10.37;2.30;;;11.30;99.90;;;;;;4363900;28;656834;-70
2023/06/05 02:43:59;;;;;;;4.60;2.07;;;11.30;99.90;;;;;;4411424;27;658818;-70
2023/06/05 02:46:46;;;;;;;6.30;2.30;;;11.30;99.90;;;;;;4383955;27;656652;-70
2023/06/05 02:49:35;;;;;;;3.97;1.93;;;11.40;99.90;;;;;;4380603;28;657847;-70
2023/06/05 02:52:22;;;;;;;6.13;2.23;;;11.40;99.90;;;;;;4358436;28;660134;-69
2023/06/05 02:55:10;;;;;;;6.37;2.20;;;11.40;99.90;;;;;;4375726;28;657142;-70
2023/06/05 02:57:58;;;;;;;4.77;2.00;;;11.40;99.90;;;;;;4385965;27;657595;-69
2023/06/05 03:00:46;;;;;;;7.77;1.90;;;11.40;99.90;;;;;;4363606;28;657060;-71
2023/06/05 03:03:33;;;;;;;6.07;2.30;;;11.50;99.90;;;;;;4384740;28;656968;-69
2023/06/05 03:06:27;;;;;;;7.13;1.80;;;11.50;99.90;;;;;;4357111;28;657227;-71
2023/06/05 03:09:14;;;;;;;5.27;2.30;;;11.60;99.90;;;;;;4362937;27;656793;-70
2023/06/05 03:12:01;;;;;;;3.97;1.90;;;11.60;99.90;;;;;;4370123;28;657073;-69
2023/06/05 03:14:48;;;;;;;5.23;2.13;;;11.60;99.90;;;;;;4378777;28;656901;-69
2023/06/05 03:17:36;;;;;;;8.90;2.20;;;11.60;99.90;;;;;;4368433;28;657287;-69
2023/06/05 03:20:23;;;;;;;4.00;2.03;;;11.60;99.90;;;;;;4379776;28;656771;-70
2023/06/05 03:23:12;;;;;;;4.13;2.00;;;11.60;99.90;;;;;;4360347;28;656548;-70
2023/06/05 03:25:59;;;;;;;5.03;2.50;;;11.60;99.90;;;;;;4371614;28;656773;-70
2023/06/05 03:28:46;;;;;;;5.93;2.20;;;11.60;99.90;;;;;;4356521;28;657146;-70
2023/06/05 03:31:35;;;;;;;4.33;2.30;;;11.60;99.90;;;;;;4381551;28;656888;-69
2023/06/05 03:34:25;;;;;;;6.17;2.13;;;11.70;99.90;;;;;;4367705;28;657542;-69
2023/06/05 03:37:12;;;;;;;6.57;2.07;;;11.70;99.90;;;;;;4410025;27;656525;-70
2023/06/05 03:40:02;;;;;;;7.37;2.03;;;11.80;99.90;;;;;;4377523;28;657073;-70
2023/06/05 03:42:49;;;;;;;5.03;2.50;;;11.90;99.90;;;;;;4393898;28;655913;-69
2023/06/05 03:45:37;;;;;;;5.88;2.17;;;11.90;99.90;;;;;;4362135;28;656780;-70
2023/06/05 03:48:25;;;;;;;3.70;1.80;;;12.00;99.90;;;;;;4389064;28;657440;-70
2023/06/05 03:51:12;;;;;;;4.57;1.97;;;12.10;99.90;;;;;;4380301;27;657162;-69
2023/06/05 03:54:00;;;;;;;4.17;2.00;;;12.20;99.90;;;;;;4380480;27;656567;-69
2023/06/05 03:56:50;;;;;;;6.67;2.40;;;12.30;99.90;;;;;;4387682;27;656789;-69
2023/06/05 03:59:37;;;;;;;4.63;2.23;;;12.40;99.90;;;;;;4366870;28;657811;-69
2023/06/05 04:02:24;;;;;;;6.60;2.17;;;12.40;99.90;;;;;;4399725;27;656724;-69
2023/06/05 04:05:12;;;;;;;3.77;2.17;;;12.60;99.90;;;;;;4368736;27;656293;-70
2023/06/05 04:07:59;;;;;;;5.27;2.00;;;12.70;99.90;;;;;;4377610;28;656601;-69
2023/06/05 04:10:46;;;;;;;4.33;2.33;;;12.70;99.90;;;;;;4362230;27;656806;-69
2023/06/05 04:13:35;;;;;;;3.53;1.90;;;12.90;99.90;;;;;;4381647;28;656831;-69
2023/06/05 04:16:22;;;;;;;8.70;2.40;;;13.00;99.90;;;;;;4373344;27;657411;-69
2023/06/05 04:19:11;;;;;;;4.63;2.33;;;13.10;99.90;;;;;;4380676;28;656503;-69
2023/06/05 04:21:59;;;;;;;4.37;2.50;;;13.20;99.90;;;;;;4373723;28;657313;-69
2023/06/05 04:24:46;;;;;;;5.23;2.50;;;13.30;99.90;;;;;;4364122;28;656936;-70
2023/06/05 04:27:33;;;;;;;8.77;2.57;;;13.40;99.90;;;;;;4389033;27;657541;-70
2023/06/05 04:30:22;;;;;;;3.23;2.03;;;13.50;99.90;;;;;;4378905;27;656741;-70
2023/06/05 04:33:09;;;;;;;8.20;2.43;;;13.60;99.90;;;;;;4391607;27;655801;-69
2023/06/05 04:35:56;;;;;;;6.83;2.30;;;13.70;99.90;;;;;;4365639;28;657014;-70
2023/06/05 04:38:43;;;;;;;4.90;2.40;;;13.80;99.90;;;;;;4388230;27;657277;-70
2023/06/05 04:41:32;;;;;;;3.30;2.23;;;13.90;99.90;;;;;;4359195;28;656994;-69
2023/06/05 04:44:19;;;;;;;4.00;2.50;;;14.00;99.90;;;;;;4381133;28;656673;-69
2023/06/05 04:47:08;;;;;;;4.93;2.27;;;14.10;99.90;;;;;;4368526;27;656916;-69
2023/06/05 04:49:55;;;;;;;3.90;2.10;;;14.20;99.90;;;;;;4355867;28;656843;-70
2023/06/05 04:52:42;;;;;;;4.67;2.10;;;14.30;99.90;;;;;;4385013;28;656986;-69
2023/06/05 04:55:30;;;;;;;5.47;2.13;;;14.40;99.90;;;;;;4396721;27;656948;-70
2023/06/05 04:58:19;;;;;;;6.67;2.40;;;14.60;99.90;;;;;;4397150;27;657191;-69
2023/06/05 05:01:06;;;;;;;5.80;2.30;;;14.70;99.90;;;;;;4370843;27;656206;-70
2023/06/05 05:03:55;;;;;;;6.80;2.30;;;14.80;99.90;;;;;;4381128;28;657238;-69
2023/06/05 05:06:47;;;;;;;3.37;2.03;;;15.00;99.90;;;;;;4360306;27;657420;-69
2023/06/05 05:09:34;;;;;;;5.33;2.30;;;15.10;99.90;;;;;;4357943;28;656265;-69
2023/06/05 05:12:21;;;;;;;5.33;2.20;;;15.30;99.90;;;;;;4370297;27;657376;-70
2023/06/05 05:15:09;;;;;;;7.10;2.37;;;15.40;99.90;;;;;;4380767;27;657856;-69
2023/06/05 05:17:57;;;;;;;8.33;2.20;;;15.50;99.90;;;;;;4363153;27;656431;-69
2023/06/05 05:20:45;;;;;;;4.30;2.23;;;15.60;99.90;;;;;;4391884;27;656198;-69
2023/06/05 05:23:33;;;;;;;3.42;2.20;;;15.80;99.90;;;;;;4350689;28;657422;-69
2023/06/05 05:26:20;;;;;;;6.67;2.20;;;15.90;99.90;;;;;;4367076;28;656660;-70
2023/06/05 05:29:07;;;;;;;8.57;2.40;;;16.00;99.90;;;;;;4394007;27;657428;-69
2023/06/05 05:31:55;;;;;;;4.93;2.20;;;16.10;99.90;;;;;;4373725;28;656410;-71
2023/06/05 05:34:42;;;;;;;5.40;2.33;;;16.30;99.90;;;;;;4430975;27;656052;-69
2023/06/05 05:37:31;;;;;;;5.80;2.20;;;16.40;99.90;;;;;;4379186;28;657474;-70
2023/06/05 05:40:18;;;;;;;2.83;1.80;;;16.60;99.90;;;;;;4371885;27;657099;-71
2023/06/05 05:43:05;;;;;;;7.20;2.00;;;16.70;99.90;;;;;;4371865;27;656482;-69
2023/06/05 05:45:53;;;;;;;6.63;2.07;;;16.90;99.90;;;;;;4391988;28;656978;-69
2023/06/05 05:48:40;;;;;;;4.40;2.10;;;17.00;99.90;;;;;;4373257;28;656397;-70
2023/06/05 05:51:27;;;;;;;2.63;2.10;;;17.10;99.90;;;;;;4385039;27;656839;-69
2023/06/05 05:54:16;;;;;;;4.73;2.00;;;17.30;99.90;;;;;;4431415;27;656398;-68
2023/06/05 05:57:04;;;;;;;4.77;2.17;;;17.40;99.90;;;;;;4351739;28;656868;-69
2023/06/05 05:59:51;;;;;;;6.30;2.13;;;17.60;99.90;;;;;;4358097;28;656390;-69
2023/06/05 06:02:39;;;;;;;6.30;2.10;;;17.70;99.90;;;;;;4384375;28;657321;-69
2023/06/05 06:05:26;;;;;;;4.67;2.20;;;17.90;99.90;;;;;;4360037;27;657501;-69
2023/06/05 06:08:13;;;;;;;6.87;1.97;;;18.00;99.90;;;;;;4412842;27;656583;-69
2023/06/05 06:11:03;;;;;;;3.30;1.87;;;18.20;99.90;;;;;;4368872;27;656791;-70
2023/06/05 06:13:51;;;;;;;6.77;2.33;;;18.30;99.90;;;;;;4380314;27;657141;-69
2023/06/05 06:16:38;;;;;;;5.07;2.43;;;18.50;99.90;;;;;;4391087;28;657176;-69
2023/06/05 06:19:27;;;;;;;4.97;2.40;;;18.70;99.90;;;;;;4366438;28;656703;-69
2023/06/05 06:22:14;;;;;;;3.50;2.00;;;18.70;99.90;;;;;;4385882;28;656024;-69
2023/06/05 06:25:03;;;;;;;7.97;2.20;;;18.90;99.90;;;;;;4354365;28;656922;-69
2023/06/05 06:27:53;;;;;;;3.83;2.33;;;19.00;99.90;;;;;;4360676;28;656521;-70
2023/06/05 06:30:42;;;;;;;5.57;2.10;;;19.20;99.90;;;;;;4366698;28;656694;-70
2023/06/05 06:33:29;;;;;;;6.67;2.40;;;19.40;99.90;;;;;;4371352;28;657794;-68
2023/06/05 06:36:17;;;;;;;3.93;2.27;;;19.60;99.90;;;;;;4359422;28;657331;-68
2023/06/05 06:39:04;;;;;;;6.13;2.33;;;19.70;99.90;;;;;;4390262;27;656472;-69
2023/06/05 06:41:53;;;;;;;4.87;2.30;;;20.00;99.90;;;;;;4404278;27;657620;-69
2023/06/05 06:44:42;;;;;;;8.07;2.77;;;20.20;99.90;;;;;;4377797;28;656611;-69
2023/06/05 06:47:29;;;;;;;16.13;2.27;;;20.30;99.90;;;;;;4395708;28;656620;-68
2023/06/05 06:50:16;;;;;;;7.67;2.40;;;20.40;99.90;;;;;;4358697;28;657544;-68
2023/06/05 06:53:03;;;;;;;8.80;2.10;;;20.50;99.90;;;;;;4398695;27;656747;-68
2023/06/05 06:55:51;;;;;;;10.03;2.40;;;20.50;99.90;;;;;;4382216;28;657139;-68
2023/06/05 06:58:38;;;;;;;12.27;2.67;;;20.70;99.90;;;;;;4386234;28;658992;-68
2023/06/05 07:01:27;;;;;;;6.03;2.30;;;20.80;99.90;;;;;;4381650;27;657784;-69
2023/06/05 07:04:16;;;;;;;4.63;2.23;;;20.90;99.90;;;;;;4393382;28;656774;-68
2023/06/05 07:07:04;;;;;;;13.80;2.40;;;21.00;99.90;;;;;;4359151;28;656861;-68
2023/06/05 07:09:51;;;;;;;3.80;2.13;;;21.00;99.90;;;;;;4357260;28;657584;-69
2023/06/05 07:12:39;;;;;;;11.47;2.60;;;21.00;99.90;;;;;;4375745;28;657391;-69
2023/06/05 07:15:26;;;;;;;6.87;2.43;;;21.10;99.90;;;;;;4363010;28;657714;-69
2023/06/05 07:18:14;;;;;;;3.50;2.07;;;21.10;99.90;;;;;;4382684;28;656646;-69
2023/06/05 07:21:03;;;;;;;3.83;2.20;;;21.20;99.90;;;;;;4357985;28;657481;-68
2023/06/05 07:23:51;;;;;;;4.77;2.07;;;21.20;99.90;;;;;;4378093;28;656756;-69
2023/06/05 07:26:38;;;;;;;5.60;2.40;;;21.30;99.90;;;;;;4376260;28;657344;-69
2023/06/05 07:29:26;;;;;;;3.47;1.93;;;21.60;99.90;;;;;;4362332;28;656949;-69
2023/06/05 07:32:13;;;;;;;7.33;1.90;;;21.70;99.90;;;;;;4380216;28;657853;-68
2023/06/05 07:35:02;;;;;;;7.27;2.30;;;21.70;99.90;;;;;;4358078;28;657655;-69
2023/06/05 07:37:49;;;;;;;5.33;2.10;;;21.70;99.90;;;;;;4376317;28;657602;-68
2023/06/05 07:40:36;;;;;;;16.10;2.47;;;21.70;99.90;;;;;;4358129;28;656504;-69
2023/06/05 07:43:24;;;;;;;6.93;1.93;;;21.80;99.90;;;;;;4393556;27;657825;-68
2023/06/05 07:46:11;;;;;;;9.40;2.20;;;21.80;99.90;;;;;;4366003;27;657299;-69
2023/06/05 07:48:58;;;;;;;4.60;2.23;;;21.60;99.90;;;;;;4386859;28;656885;-69
2023/06/05 07:51:48;;;;;;;4.80;2.30;;;21.70;99.90;;;;;;4362866;28;656798;-70
2023/06/05 07:54:35;;;;;;;8.57;2.17;;;22.00;99.90;;;;;;4369251;27;656631;-69
2023/06/05 07:57:23;;;;;;;6.63;2.27;;;22.00;99.90;;;;;;4389327;27;657201;-69
2023/06/05 08:00:12;;;;;;;4.90;2.10;;;22.20;99.90;;;;;;4367390;27;657318;-69
2023/06/05 08:02:59;;;;;;;3.50;2.10;;;22.40;99.90;;;;;;4386609;27;656187;-68
2023/06/05 08:05:47;;;;;;;3.37;2.13;;;22.50;99.90;;;;;;4360076;28;657960;-68
2023/06/05 08:08:36;;;;;;;12.27;2.70;;;22.70;99.90;;;;;;4380411;28;656557;-68
2023/06/05 08:11:23;;;;;;;5.63;2.30;;;22.80;99.90;;;;;;4356092;28;658484;-69
2023/06/05 08:14:10;;;;;;;6.63;2.27;;;23.00;99.90;;;;;;4372849;28;656644;-69
2023/06/05 08:16:57;;;;;;;7.43;2.27;;;23.00;99.90;;;;;;4398824;27;657183;-68
2023/06/05 08:19:45;;;;;;;3.23;2.10;;;23.20;99.90;;;;;;4383574;28;657381;-68
2023/06/05 08:22:32;;;;;;;8.00;2.20;;;23.40;99.90;;;;;;4388475;28;656841;-68
2023/06/05 08:25:21;;;;;;;8.23;2.20;;;23.40;99.90;;;;;;4420414;27;656195;-68
2023/06/05 08:28:08;;;;;;;10.80;2.27;;;23.50;99.90;;;;;;4355357;28;657585;-68
2023/06/05 08:30:56;;;;;;;4.53;2.03;;;23.70;99.90;;;;;;4375476;28;658454;-69
2023/06/05 08:33:44;;;;;;;4.47;2.00;;;23.80;99.90;;;;;;4386730;27;658113;-68
2023/06/05 08:36:32;;;;;;;4.57;2.00;;;23.70;99.90;;;;;;4365250;28;656796;-68
2023/06/05 08:39:20;;;;;;;5.93;1.90;;;23.80;99.90;;;;;;4383634;28;656397;-68
2023/06/05 08:42:12;;;;;;;4.23;2.00;;;24.00;99.90;;;;;;4361085;27;656491;-68
2023/06/05 08:44:59;;;;;;;6.93;2.00;;;24.00;99.90;;;;;;4363310;27;656702;-69
2023/06/05 08:47:46;;;;;;;3.63;2.10;;;24.10;99.90;;;;;;4362725;28;657188;-69
2023/06/05 08:50:33;;;;;;;7.37;2.10;;;24.10;99.90;;;;;;4383752;27;657054;-68
2023/06/05 08:53:20;;;;;;;13.77;2.20;;;24.30;99.90;;;;;;4368102;28;656975;-69
2023/06/05 08:56:08;;;;;;;3.25;2.00;;;24.40;99.90;;;;;;4382538;28;658601;-69
2023/06/05 08:58:57;;;;;;;5.82;2.10;;;24.40;99.90;;;;;;4379688;27;657552;-69
2023/06/05 09:01:44;;;;;;;4.57;1.90;;;24.60;99.90;;;;;;4378308;28;656913;-68
2023/06/05 09:04:32;;;;;;;5.55;2.00;;;24.60;99.90;;;;;;4367165;28;657099;-69
2023/06/05 09:07:19;;;;;;;7.25;2.30;;;24.60;99.90;;;;;;4389741;28;656843;-69
2023/06/05 09:10:08;;;;;;;7.28;1.92;;;24.90;99.90;;;;;;4358229;27;657648;-69
2023/06/05 09:12:56;;;;;;;7.53;2.05;;;25.20;99.90;;;;;;4366495;27;656766;-69
2023/06/05 09:15:45;;;;;;;6.43;1.98;;;25.20;99.90;;;;;;4391977;27;656514;-68
2023/06/05 09:18:36;;;;;;;5.53;1.85;;;25.30;99.90;;;;;;4380731;27;656989;-68
2023/06/05 09:21:28;;;;;;;6.65;1.98;;;25.40;99.90;;;;;;4382817;27;657302;-68
2023/06/05 09:24:16;;;;;;;5.95;1.60;;;25.70;99.90;;;;;;4338973;28;656462;-69
2023/06/05 09:27:05;;;;;;;4.50;2.15;;;25.60;99.90;;;;;;4408390;27;656193;-68
2023/06/05 09:29:53;;;;;;;7.40;1.77;;;25.50;99.90;;;;;;4371129;27;656904;-68
2023/06/05 09:32:42;;;;;;;3.40;2.15;;;25.70;99.90;;;;;;4369969;28;657184;-69
2023/06/05 09:35:29;;;;;;;7.60;2.20;;;25.70;99.90;;;;;;4386419;27;656280;-68
2023/06/05 09:38:27;;;;;;;4.47;1.90;;;26.10;99.90;;;;;;4364984;28;657066;-69
2023/06/05 09:41:15;;;;;;;6.00;2.10;;;26.20;99.90;;;;;;4354236;28;657261;-68
2023/06/05 09:44:05;;;;;;;3.60;1.88;;;26.30;99.90;;;;;;4356661;28;656596;-68
2023/06/05 09:46:53;;;;;;;4.57;2.08;;;26.40;99.90;;;;;;4359201;28;657758;-69
2023/06/05 09:49:48;;;;;;;8.63;2.22;;;26.30;99.90;;;;;;4359670;28;656473;-68
2023/06/05 09:52:36;;;;;;;3.60;2.20;;;26.00;99.90;;;;;;4342695;27;656963;-68
2023/06/05 09:55:23;;;;;;;5.30;2.03;;;26.10;99.90;;;;;;4390021;28;657768;-67
2023/06/05 09:58:13;;;;;;;9.77;2.35;;;26.50;99.90;;;;;;4366348;27;656808;-69
2023/06/05 10:01:03;;;;;;;5.65;2.00;;;26.60;99.90;;;;;;4359746;28;656706;-69
2023/06/05 10:03:54;;;;;;;5.75;2.25;;;26.60;99.90;;;;;;4376517;28;656877;-69
2023/06/05 10:06:42;;;;;;;13.82;2.40;;;26.60;99.90;;;;;;4362326;27;656412;-69
2023/06/05 10:09:30;;;;;;;5.57;2.20;;;26.40;99.90;;;;;;4379290;28;657638;-69
2023/06/05 10:12:17;;;;;;;4.20;2.40;;;26.40;99.90;;;;;;4363623;27;657704;-68
2023/06/05 10:15:07;;;;;;;5.65;2.30;;;26.30;99.90;;;;;;4382670;27;656559;-69
2023/06/05 10:17:55;;;;;;;5.07;2.13;;;26.50;99.90;;;;;;4382017;28;656376;-69
2023/06/05 10:20:43;;;;;;;6.70;2.20;;;26.70;99.90;;;;;;4395228;28;657030;-69
2023/06/05 10:23:32;;;;;;;9.20;2.00;;;26.70;99.90;;;;;;4374045;28;656632;-69
2023/06/05 10:26:28;;;;;;;5.10;2.30;;;26.30;99.90;;;;;;4397398;27;657392;-68
2023/06/05 10:29:23;;;;;;;4.28;1.90;;;26.70;99.90;;;;;;4353285;28;656665;-69
2023/06/05 10:32:13;;;;;;;6.22;1.90;;;27.10;99.90;;;;;;4332753;27;656818;-68
2023/06/05 10:35:07;;;;;;;3.85;1.98;;;27.10;99.90;;;;;;4383448;27;656753;-68
2023/06/05 10:38:01;;;;;;;6.60;2.20;;;27.10;99.90;;;;;;4378517;27;657757;-70
2023/06/05 10:40:52;;;;;;;4.15;2.08;;;27.40;99.90;;;;;;4372099;28;656871;-70
2023/06/05 10:43:47;;;;;;;6.65;2.03;;;27.60;99.90;;;;;;4357752;28;656456;-70
2023/06/05 10:46:35;;;;;;;4.63;1.92;;;27.20;99.90;;;;;;4373735;27;656718;-69
2023/06/05 10:49:23;;;;;;;5.20;2.00;;;27.50;99.90;;;;;;4361741;28;657777;-70
2023/06/05 10:52:29;;;;;;;7.55;2.33;;;27.70;99.90;;;;;;4389923;27;657750;-71
2023/06/05 10:55:17;;;;;;;5.32;2.30;;;27.90;99.90;;;;;;4324896;28;657617;-70
2023/06/05 10:58:08;;;;;;;4.40;1.90;;;27.70;99.90;;;;;;4377644;28;656227;-70
2023/06/05 11:01:17;;;;;;;6.55;2.17;;;27.50;99.90;;;;;;4338167;28;657241;-70
2023/06/05 11:04:05;;;;;;;7.50;2.17;;;27.50;99.90;;;;;;4381345;28;656420;-70
2023/06/05 11:07:16;;;;;;;10.35;2.25;;;27.50;99.90;;;;;;4372637;27;658336;-70
2023/06/05 11:10:15;;;;;;;5.03;2.00;;;27.50;99.90;;;;;;4356056;28;658176;-70
2023/06/05 11:13:03;;;;;;;5.50;2.30;;;27.80;99.90;;;;;;4358383;28;656464;-70
2023/06/05 11:15:56;;;;;;;3.78;1.98;;;27.70;99.90;;;;;;4368984;28;656389;-70
2023/06/05 11:18:45;;;;;;;8.02;2.38;;;27.80;99.90;;;;;;4359399;28;656347;-70
2023/06/05 11:22:02;;;;;;;7.55;2.40;;;27.90;99.90;;;;;;4361643;28;657182;-69
2023/06/05 11:25:29;;;;;;;8.93;2.58;;;28.00;99.90;;;;;;4370053;28;657119;-70
2023/06/05 11:28:21;;;;;;;7.20;2.53;;;28.50;99.90;;;;;;4378966;27;656595;-70
2023/06/05 11:31:09;;;;;;;6.35;2.33;;;28.50;99.90;;;;;;4354182;28;656489;-70
2023/06/05 11:33:56;;;;;;;2.85;2.40;;;28.30;99.90;;;;;;4360322;28;656935;-70
2023/06/05 11:36:44;;;;;;;4.50;2.22;;;28.60;99.90;;;;;;4400775;28;656621;-70
2023/06/05 11:39:43;;;;;;;8.23;1.90;;;28.50;99.90;;;;;;4375737;27;656877;-71
2023/06/05 11:42:32;;;;;;;5.15;2.10;;;28.50;99.90;;;;;;4340333;28;657324;-70
2023/06/05 11:45:19;;;;;;;5.45;2.40;;;28.40;99.90;;;;;;4384621;28;657088;-70
2023/06/05 11:48:07;;;;;;;5.72;2.25;;;28.20;99.90;;;;;;4359109;28;656058;-70
2023/06/05 11:50:57;;;;;;;10.15;2.17;;;28.30;99.90;;;;;;4392266;28;656473;-70
2023/06/05 11:53:46;;;;;;;5.18;2.33;;;28.30;99.90;;;;;;4357229;28;657688;-70
2023/06/05 11:56:34;;;;;;;3.40;2.03;;;28.40;99.90;;;;;;4385331;27;656470;-70
2023/06/05 11:59:24;;;;;;;9.68;2.75;;;28.50;99.90;;;;;;4356530;28;656765;-70
2023/06/05 12:02:11;;;;;;;6.40;2.40;;;28.40;99.90;;;;;;4359253;28;656810;-70
2023/06/05 12:04:58;;;;;;;4.97;2.10;;;28.60;99.90;;;;;;4375604;28;657950;-70
2023/06/05 12:07:46;;;;;;;10.52;2.40;;;28.60;99.90;;;;;;4358254;28;656446;-70
2023/06/05 12:10:36;;;;;;;3.38;2.30;;;28.50;99.90;;;;;;4379393;28;658647;-70
2023/06/05 12:13:23;;;;;;;7.95;2.38;;;28.40;99.90;;;;;;4369741;28;657232;-70
2023/06/05 12:16:12;;;;;;;5.00;2.25;;;28.60;99.90;;;;;;4438629;27;656476;-71
2023/06/05 12:18:59;;;;;;;8.68;2.58;;;28.50;99.90;;;;;;4384698;28;656634;-70
2023/06/05 12:21:47;;;;;;;12.18;3.00;;;28.70;99.90;;;;;;4361963;28;657567;-70
2023/06/05 12:24:35;;;;;;;3.20;2.10;;;29.00;99.90;;;;;;4382106;28;658328;-70
2023/06/05 12:27:32;;;;;;;13.52;2.60;;;29.00;99.90;;;;;;4355466;28;657349;-70
2023/06/05 12:30:19;;;;;;;4.80;2.20;;;28.80;99.90;;;;;;4364190;28;657406;-70
2023/06/05 12:33:08;;;;;;;6.35;2.25;;;28.80;99.90;;;;;;4362750;28;657302;-70
2023/06/05 12:36:05;;;;;;;4.95;2.42;;;28.90;99.90;;;;;;4379739;27;656293;-70
2023/06/05 12:38:53;;;;;;;5.93;2.40;;;28.70;99.90;;;;;;4357297;28;656703;-70
2023/06/05 12:41:40;;;;;;;7.85;2.33;;;28.80;99.90;;;;;;4374703;27;657326;-71
2023/06/05 12:44:27;;;;;;;4.47;2.20;;;29.00;99.90;;;;;;4390471;28;657359;-71
2023/06/05 12:47:15;;;;;;;2.90;2.20;;;28.90;99.90;;;;;;4377448;27;656753;-71
2023/06/05 12:50:05;;;;;;;5.40;2.30;;;29.00;99.90;;;;;;4382752;28;657647;-69
2023/06/05 12:52:53;;;;;;;4.32;2.40;;;29.30;99.90;;;;;;4361464;28;657361;-69
2023/06/05 12:55:41;;;;;;;3.13;2.35;;;29.40;99.90;;;;;;4386920;27;656769;-69
2023/06/05 12:58:28;;;;;;;7.32;2.65;;;29.70;99.90;;;;;;4392193;28;656978;-69
2023/06/05 13:01:15;;;;;;;7.65;2.67;;;30.00;99.90;;;;;;4366907;28;656434;-70
2023/06/05 13:04:02;;;;;;;3.75;2.50;;;29.80;99.90;;;;;;4388006;28;657799;-68
2023/06/05 13:06:53;;;;;;;9.10;2.38;;;29.70;99.90;;;;;;4390958;27;656990;-69
2023/06/05 13:09:41;;;;;;;4.80;2.28;;;30.00;99.90;;;;;;4368034;28;657040;-70
2023/06/05 13:12:28;;;;;;;6.95;2.50;;;30.20;99.90;;;;;;4390371;27;657403;-68
2023/06/05 13:15:15;;;;;;;7.40;2.22;;;30.80;99.90;;;;;;4378492;27;656281;-69
2023/06/05 13:18:03;;;;;;;3.25;2.20;;;31.00;99.90;;;;;;4393342;27;657978;-68
2023/06/05 13:20:50;;;;;;;9.73;2.50;;;31.10;99.90;;;;;;4377796;28;657256;-70
2023/06/05 13:23:39;;;;;;;6.65;2.30;;;31.00;99.90;;;;;;4393852;28;656649;-69
2023/06/05 13:26:27;;;;;;;5.45;2.30;;;30.80;99.90;;;;;;4380661;27;657700;-69
2023/06/05 13:29:14;;;;;;;5.15;2.63;;;30.80;99.90;;;;;;4383889;28;657931;-69
2023/06/05 13:32:02;;;;;;;9.23;2.38;;;30.80;99.90;;;;;;4362404;28;657066;-69
2023/06/05 13:34:49;;;;;;;4.78;2.30;;;30.80;99.90;;;;;;4393362;28;656958;-69
2023/06/05 13:37:36;;;;;;;4.50;2.30;;;31.00;99.90;;;;;;4365940;27;656905;-69
2023/06/05 13:40:26;;;;;;;8.48;2.30;;;30.70;99.90;;;;;;4388300;27;657145;-69
2023/06/05 13:43:14;;;;;;;4.72;2.33;;;30.60;99.90;;;;;;4360730;28;656951;-70
2023/06/05 13:46:01;;;;;;;5.35;2.55;;;30.30;99.90;;;;;;4368586;27;657318;-69
2023/06/05 13:48:48;;;;;;;4.90;2.58;;;29.80;99.90;;;;;;4384395;27;657016;-69
2023/06/05 13:51:37;;;;;;;4.88;2.50;;;29.70;99.90;;;;;;4380745;27;657304;-69
2023/06/05 13:54:25;;;;;;;7.45;2.60;;;29.40;99.90;;;;;;4386469;27;656627;-70
2023/06/05 13:57:16;;;;;;;2.80;2.30;;;28.60;99.90;;;;;;4385426;27;657995;-69
2023/06/05 14:00:05;;;;;;;5.90;2.50;;;29.00;99.90;;;;;;4358121;28;658014;-69
2023/06/05 14:02:52;;;;;;;5.60;2.85;;;29.40;99.90;;;;;;4385577;27;656765;-68
2023/06/05 14:05:40;;;;;;;5.57;2.50;;;29.00;99.90;;;;;;4377431;28;656466;-69
2023/06/05 14:08:28;;;;;;;4.60;2.70;;;28.70;99.90;;;;;;4377722;27;657120;-69
2023/06/05 14:11:15;;;;;;;3.33;2.45;;;28.40;99.90;;;;;;4364815;27;656580;-70
2023/06/05 14:14:05;;;;;;;3.88;2.22;;;27.90;99.90;;;;;;4396361;27;657936;-70
2023/06/05 14:16:53;;;;;;;4.25;2.65;;;28.10;99.90;;;;;;4374351;27;656851;-69
2023/06/05 14:19:40;;;;;;;9.07;2.60;;;27.50;99.90;;;;;;4383828;27;656507;-70
2023/06/05 14:22:28;;;;;;;5.40;2.70;;;27.30;99.90;;;;;;4380638;28;658679;-69
2023/06/05 14:25:15;;;;;;;6.57;3.17;;;27.30;99.90;;;;;;4375098;27;656866;-69